Time;durP1;ratioP1;P1;durP2;ratioP2;P2;SDS_P1;SDS_P2;PMS_P1;PMS_P2;Temp;Humidity;BMP_temperature;BMP_pressure;BME280_temperature;BME280_humidity;BME280_pressure;Samples;Min_cycle;Max_cycle;Signal;HPM_P1;HPM_P2
2021/11/09 00:00:34;;;;;;;19.38;7.60;;;8.50;99.90;;;;;;5047198;28;20520;-59
2021/11/09 00:03:04;;;;;;;18.65;8.02;;;8.50;99.90;;;;;;5048366;28;20040;-59
2021/11/09 00:05:31;;;;;;;19.52;7.57;;;8.50;99.90;;;;;;5050061;28;20052;-59
2021/11/09 00:08:01;;;;;;;27.73;8.77;;;8.50;99.90;;;;;;5049517;28;20441;-59
2021/11/09 00:10:28;;;;;;;20.35;9.07;;;8.50;99.90;;;;;;5015770;28;20145;-59
2021/11/09 00:13:00;;;;;;;19.73;7.85;;;8.50;99.90;;;;;;5049105;28;20037;-51
2021/11/09 00:15:28;;;;;;;20.80;8.13;;;8.50;99.90;;;;;;5048825;28;20041;-49
2021/11/09 00:17:57;;;;;;;20.85;9.15;;;8.50;99.90;;;;;;5049400;28;20076;-51
2021/11/09 00:20:27;;;;;;;15.85;8.63;;;8.50;99.90;;;;;;5031205;28;20040;-46
2021/11/09 00:22:55;;;;;;;14.23;7.45;;;8.50;99.90;;;;;;5047622;28;20134;-45
2021/11/09 00:25:23;;;;;;;18.55;8.68;;;8.50;99.90;;;;;;5047645;28;20163;-45
2021/11/09 00:27:50;;;;;;;16.83;8.15;;;8.50;99.90;;;;;;5049048;28;20134;-44
2021/11/09 00:30:18;;;;;;;18.15;8.35;;;8.50;99.90;;;;;;5049488;28;20080;-60
2021/11/09 00:32:44;;;;;;;15.60;8.18;;;8.50;99.90;;;;;;5050513;28;20041;-59
2021/11/09 00:35:20;;;;;;;15.98;8.70;;;8.40;99.90;;;;;;5053060;28;20504;-60
2021/11/09 00:37:46;;;;;;;15.70;7.85;;;8.40;99.90;;;;;;5052295;28;20052;-59
2021/11/09 00:40:16;;;;;;;18.98;8.52;;;8.40;99.90;;;;;;5051192;28;20389;-59
2021/11/09 00:42:42;;;;;;;16.58;8.57;;;8.30;99.90;;;;;;5050660;28;20084;-59
2021/11/09 00:45:11;;;;;;;18.60;7.97;;;8.20;99.90;;;;;;5022506;28;20556;-59
2021/11/09 00:47:37;;;;;;;19.58;7.78;;;8.10;99.90;;;;;;5018322;28;20151;-60
2021/11/09 00:50:06;;;;;;;20.10;8.70;;;8.00;99.90;;;;;;5046042;28;20531;-59
2021/11/09 00:52:33;;;;;;;23.02;9.20;;;8.00;99.90;;;;;;5032281;28;20591;-60
2021/11/09 00:54:59;;;;;;;16.92;8.00;;;7.90;99.90;;;;;;5031214;28;20045;-59
2021/11/09 00:57:25;;;;;;;19.50;8.30;;;7.80;99.90;;;;;;5031111;28;20049;-59
2021/11/09 00:59:52;;;;;;;20.58;8.55;;;7.70;99.90;;;;;;5031847;28;20049;-60
2021/11/09 01:02:18;;;;;;;15.75;7.55;;;7.60;99.90;;;;;;5014262;28;20045;-60
2021/11/09 01:04:44;;;;;;;17.83;8.60;;;7.60;99.90;;;;;;5030923;28;20045;-60
2021/11/09 01:07:10;;;;;;;22.83;9.38;;;7.50;99.90;;;;;;5033071;28;20080;-59
2021/11/09 01:09:36;;;;;;;24.15;10.00;;;7.50;99.90;;;;;;5030474;28;20100;-59
2021/11/09 01:12:03;;;;;;;22.25;9.48;;;7.50;99.90;;;;;;5032125;28;20053;-59
2021/11/09 01:14:30;;;;;;;23.95;10.40;;;7.40;99.90;;;;;;5032217;28;20077;-60
2021/11/09 01:16:56;;;;;;;22.17;11.18;;;7.40;99.90;;;;;;5014077;28;20045;-44
2021/11/09 01:19:24;;;;;;;21.67;10.93;;;7.30;99.90;;;;;;5030746;28;20050;-45
2021/11/09 01:21:53;;;;;;;19.80;11.00;;;7.30;99.90;;;;;;5031596;28;20543;-59
2021/11/09 01:24:19;;;;;;;22.92;11.02;;;7.30;99.90;;;;;;5031204;28;20046;-59
2021/11/09 01:26:46;;;;;;;29.35;13.27;;;7.30;99.90;;;;;;5031823;28;20078;-59
2021/11/09 01:29:13;;;;;;;25.20;13.30;;;7.20;99.90;;;;;;5036980;28;20504;-59
2021/11/09 01:31:41;;;;;;;33.25;13.77;;;7.20;99.90;;;;;;5050346;28;20045;-59
2021/11/09 01:34:08;;;;;;;26.90;13.63;;;7.20;99.90;;;;;;5050767;28;20404;-59
2021/11/09 01:36:34;;;;;;;26.20;13.40;;;7.20;99.90;;;;;;5052098;28;20558;-60
2021/11/09 01:39:01;;;;;;;35.35;14.95;;;7.10;99.90;;;;;;5051343;28;20044;-59
2021/11/09 01:41:28;;;;;;;33.58;15.13;;;7.10;99.90;;;;;;5040315;28;20124;-59
2021/11/09 01:43:55;;;;;;;28.02;14.60;;;7.10;99.90;;;;;;5032095;28;20121;-59
2021/11/09 01:46:21;;;;;;;37.28;15.90;;;7.10;99.90;;;;;;5031894;28;20091;-60
2021/11/09 01:48:48;;;;;;;35.55;16.55;;;7.00;99.90;;;;;;5031705;28;20374;-59
2021/11/09 01:51:18;;;;;;;27.20;15.02;;;7.00;99.90;;;;;;5031569;28;20045;-59
2021/11/09 01:53:47;;;;;;;27.58;16.45;;;7.00;99.90;;;;;;5030417;28;20049;-59
2021/11/09 01:56:17;;;;;;;30.33;15.65;;;6.90;99.90;;;;;;5031969;28;20051;-60
2021/11/09 01:58:43;;;;;;;39.78;16.80;;;6.90;99.90;;;;;;5043436;28;20127;-60
2021/11/09 02:01:13;;;;;;;28.83;17.33;;;6.90;99.90;;;;;;5050122;28;20162;-60
2021/11/09 02:03:43;;;;;;;35.55;16.67;;;6.90;99.90;;;;;;5049965;28;20095;-59
2021/11/09 02:06:11;;;;;;;32.88;17.35;;;6.90;99.90;;;;;;5051581;28;20511;-45
2021/11/09 02:08:37;;;;;;;32.05;17.50;;;6.80;99.90;;;;;;5051407;28;20041;-46
2021/11/09 02:11:04;;;;;;;28.15;16.92;;;6.80;99.90;;;;;;5051563;28;20155;-48
2021/11/09 02:13:30;;;;;;;33.85;18.42;;;6.80;99.90;;;;;;5051139;28;20053;-47
2021/11/09 02:15:57;;;;;;;38.33;18.38;;;6.70;99.90;;;;;;5032199;28;20522;-47
2021/11/09 02:18:25;;;;;;;26.38;17.15;;;6.80;99.90;;;;;;5049457;28;20056;-50
2021/11/09 02:20:58;;;;;;;33.60;17.30;;;6.70;99.90;;;;;;5050658;28;20162;-47
2021/11/09 02:23:25;;;;;;;29.45;16.42;;;6.70;99.90;;;;;;5050991;28;20142;-45
2021/11/09 02:25:52;;;;;;;39.08;17.98;;;6.60;99.90;;;;;;5050627;28;20049;-45
2021/11/09 02:28:19;;;;;;;30.42;17.98;;;6.60;99.90;;;;;;5049296;28;20036;-45
2021/11/09 02:30:45;;;;;;;37.67;17.58;;;6.60;99.90;;;;;;5031952;28;20400;-47
2021/11/09 02:33:12;;;;;;;32.38;17.95;;;6.50;99.90;;;;;;5049160;28;20041;-47
2021/11/09 02:35:39;;;;;;;25.15;17.40;;;6.50;99.90;;;;;;5049189;28;20059;-45
2021/11/09 02:38:06;;;;;;;28.27;17.45;;;6.50;99.90;;;;;;5050488;28;20037;-45
2021/11/09 02:40:34;;;;;;;41.97;19.33;;;6.40;99.90;;;;;;5050004;28;20055;-45
2021/11/09 02:43:06;;;;;;;28.88;17.48;;;6.40;99.90;;;;;;5050101;28;20083;-46
2021/11/09 02:45:40;;;;;;;27.58;18.55;;;6.40;99.90;;;;;;5050547;28;20056;-45
2021/11/09 02:48:17;;;;;;;33.45;18.80;;;6.30;99.90;;;;;;5050344;28;20041;-49
2021/11/09 02:50:48;;;;;;;35.47;18.35;;;6.30;99.90;;;;;;5049868;28;20138;-50
2021/11/09 02:56:07;;;;;;;33.25;18.27;;;6.30;99.90;;;;;;5050118;28;20067;-46
2021/11/09 03:11:25;;;;;;;36.03;18.10;;;6.20;99.90;;;;;;5029820;28;20051;-48
2021/11/09 03:13:52;;;;;;;36.83;18.25;;;6.10;99.90;;;;;;5028164;28;20099;-59
2021/11/09 03:16:20;;;;;;;34.10;17.02;;;6.20;99.90;;;;;;5030148;28;20116;-45
2021/11/09 03:18:59;;;;;;;34.42;18.13;;;6.10;99.90;;;;;;5029666;28;20056;-50
2021/11/09 03:40:48;;;;;;;28.55;17.13;;;6.10;99.90;;;;;;5036943;28;20049;-45
2021/11/09 03:46:00;;;;;;;28.63;17.67;;;6.00;99.90;;;;;;5038015;28;20047;-45
2021/11/09 03:48:26;;;;;;;42.40;17.90;;;6.00;99.90;;;;;;5050042;28;20034;-59
2021/11/09 03:50:59;;;;;;;30.40;17.15;;;6.00;99.90;;;;;;5048407;28;20049;-59
2021/11/09 03:53:28;;;;;;;32.63;17.63;;;5.90;99.90;;;;;;5048240;28;20045;-59
2021/11/09 03:56:08;;;;;;;29.92;17.27;;;5.90;99.90;;;;;;5049591;28;20052;-45
2021/11/09 03:58:41;;;;;;;28.58;16.85;;;5.90;99.90;;;;;;5030857;28;20464;-46
2021/11/09 04:01:15;;;;;;;32.05;16.42;;;5.90;99.90;;;;;;5044676;28;20069;-49
2021/11/09 04:06:31;;;;;;;34.15;17.33;;;5.80;99.90;;;;;;5033593;28;20045;-46
2021/11/09 04:22:17;;;;;;;36.72;16.85;;;5.60;99.90;;;;;;5015406;28;20049;-60
2021/11/09 05:10:46;;;;;;;40.15;20.85;;;5.40;99.90;;;;;;4990443;28;20453;-60
2021/11/09 05:13:12;;;;;;;41.40;22.40;;;5.40;99.90;;;;;;4974297;28;20055;-59
2021/11/09 05:15:38;;;;;;;46.00;22.02;;;5.40;99.90;;;;;;4990193;28;20050;-60
2021/11/09 05:18:05;;;;;;;49.75;25.75;;;5.40;99.90;;;;;;4991030;28;20046;-59
2021/11/09 05:20:31;;;;;;;41.70;22.95;;;5.40;99.90;;;;;;4990255;28;20089;-60
2021/11/09 05:22:58;;;;;;;44.00;23.05;;;5.40;99.90;;;;;;4990987;28;20042;-47
2021/11/09 05:25:25;;;;;;;46.13;23.05;;;5.40;99.90;;;;;;4990253;28;20130;-59
2021/11/09 05:27:52;;;;;;;49.53;24.65;;;5.30;99.90;;;;;;4990621;28;20038;-46
2021/11/09 05:30:20;;;;;;;44.95;24.42;;;5.30;99.90;;;;;;5004186;28;20042;-47
2021/11/09 05:32:46;;;;;;;40.60;23.63;;;5.30;99.90;;;;;;5009942;28;20046;-60
2021/11/09 05:35:12;;;;;;;43.65;24.77;;;5.30;99.90;;;;;;5009652;28;20057;-60
2021/11/09 05:37:47;;;;;;;52.35;26.05;;;5.30;99.90;;;;;;5009514;28;20106;-59
2021/11/09 05:40:14;;;;;;;45.10;23.73;;;5.30;99.90;;;;;;5008626;28;20061;-45
2021/11/09 05:42:41;;;;;;;44.88;24.85;;;5.30;99.90;;;;;;5035723;28;20131;-45
2021/11/09 05:45:11;;;;;;;46.20;24.73;;;5.20;99.90;;;;;;5050300;28;20049;-49
2021/11/09 05:47:37;;;;;;;44.72;25.30;;;5.20;99.90;;;;;;5050470;28;20435;-45
2021/11/09 05:50:05;;;;;;;50.15;26.30;;;5.20;99.90;;;;;;5051998;28;20536;-59
2021/11/09 05:52:31;;;;;;;48.85;25.42;;;5.20;99.90;;;;;;5051308;28;20053;-44
2021/11/09 05:54:57;;;;;;;52.45;26.77;;;5.20;99.90;;;;;;5049627;28;20053;-47
2021/11/09 05:57:23;;;;;;;43.15;25.08;;;5.20;99.90;;;;;;5050886;28;20480;-45
2021/11/09 05:59:49;;;;;;;45.28;25.45;;;5.20;99.90;;;;;;5049851;28;20098;-60
2021/11/09 06:02:16;;;;;;;47.15;25.98;;;5.20;99.90;;;;;;5051142;28;20135;-59
2021/11/09 06:04:42;;;;;;;47.55;26.27;;;5.20;99.90;;;;;;5050861;28;20045;-44
2021/11/09 06:07:08;;;;;;;50.47;26.95;;;5.20;99.90;;;;;;5050925;28;20033;-59
2021/11/09 06:09:34;;;;;;;48.85;27.40;;;5.20;99.90;;;;;;5051082;28;20044;-58
2021/11/09 06:12:00;;;;;;;47.08;28.48;;;5.20;99.90;;;;;;5049362;28;20087;-45
2021/11/09 06:14:27;;;;;;;47.00;26.58;;;5.20;99.90;;;;;;5049576;28;20595;-47
2021/11/09 06:16:54;;;;;;;48.70;25.23;;;5.20;99.90;;;;;;5046267;28;20048;-60
2021/11/09 06:19:20;;;;;;;38.05;25.42;;;5.20;99.90;;;;;;5050047;28;20037;-59
2021/11/09 06:21:46;;;;;;;48.83;25.88;;;5.20;99.90;;;;;;5049650;28;20045;-60
2021/11/09 06:24:12;;;;;;;43.35;25.70;;;5.10;99.90;;;;;;5048315;28;20353;-59
2021/11/09 06:26:38;;;;;;;47.08;26.90;;;5.20;99.90;;;;;;5048349;28;20041;-60
2021/11/09 06:29:06;;;;;;;45.75;25.90;;;5.20;99.90;;;;;;5050246;28;20041;-60
2021/11/09 06:31:32;;;;;;;48.67;26.92;;;5.10;99.90;;;;;;5047650;28;20057;-59
2021/11/09 06:33:58;;;;;;;47.70;25.77;;;5.10;99.90;;;;;;5049895;28;20056;-50
2021/11/09 06:36:24;;;;;;;44.47;26.33;;;5.10;99.90;;;;;;5049467;28;20053;-46
2021/11/09 06:38:50;;;;;;;53.53;27.63;;;5.10;99.90;;;;;;5048061;28;20118;-45
2021/11/09 06:41:16;;;;;;;44.60;26.38;;;5.10;99.90;;;;;;5048457;28;20384;-46
2021/11/09 06:43:42;;;;;;;50.30;27.10;;;5.00;99.90;;;;;;5048062;28;20037;-59
2021/11/09 06:46:08;;;;;;;45.28;26.83;;;5.00;99.90;;;;;;5049809;28;20033;-60
2021/11/09 06:48:34;;;;;;;48.67;26.30;;;5.00;99.90;;;;;;5048584;28;20499;-45
2021/11/09 06:51:03;;;;;;;49.80;26.48;;;5.00;99.90;;;;;;5058083;28;20400;-45
2021/11/09 06:53:29;;;;;;;46.00;25.98;;;5.00;99.90;;;;;;5060204;28;20079;-60
2021/11/09 06:55:55;;;;;;;45.95;25.25;;;5.00;99.90;;;;;;5051115;28;20589;-60
2021/11/09 06:58:22;;;;;;;47.53;25.73;;;4.90;99.90;;;;;;5044296;28;20049;-59
2021/11/09 07:00:48;;;;;;;44.28;27.98;;;4.90;99.90;;;;;;5049531;28;20127;-59
2021/11/09 07:03:14;;;;;;;42.28;27.35;;;5.00;99.90;;;;;;5037570;28;20045;-59
2021/11/09 07:05:40;;;;;;;43.97;26.63;;;5.00;99.90;;;;;;5047076;28;20083;-59
2021/11/09 07:08:06;;;;;;;41.78;25.52;;;5.00;99.90;;;;;;5048154;28;20028;-59
2021/11/09 07:10:32;;;;;;;48.78;26.40;;;5.10;99.90;;;;;;5049434;28;20044;-60
2021/11/09 07:12:59;;;;;;;47.42;27.48;;;5.00;99.90;;;;;;5047243;28;20116;-60
2021/11/09 07:15:25;;;;;;;48.22;26.10;;;5.00;99.90;;;;;;5047263;28;20040;-60
2021/11/09 07:17:51;;;;;;;47.40;25.77;;;5.10;99.90;;;;;;5043622;28;20400;-60
2021/11/09 07:20:19;;;;;;;38.88;23.48;;;5.20;99.90;;;;;;5045082;28;20094;-60
2021/11/09 07:22:47;;;;;;;40.22;26.15;;;5.20;99.90;;;;;;5046180;28;20033;-60
2021/11/09 07:25:14;;;;;;;44.58;27.63;;;5.20;99.90;;;;;;5054536;28;20045;-59
2021/11/09 07:27:41;;;;;;;41.92;26.23;;;5.20;99.90;;;;;;5047523;28;20045;-59
2021/11/09 07:30:10;;;;;;;46.60;27.52;;;5.20;99.90;;;;;;5057080;28;20119;-59
2021/11/09 07:32:37;;;;;;;47.85;25.95;;;5.20;99.90;;;;;;5049189;28;20045;-59
2021/11/09 07:35:05;;;;;;;40.28;25.05;;;5.20;99.90;;;;;;5044932;28;20044;-59
2021/11/09 07:37:31;;;;;;;37.80;25.27;;;5.30;99.90;;;;;;5042618;28;20084;-60
2021/11/09 07:39:57;;;;;;;46.83;26.88;;;5.30;99.90;;;;;;5030963;28;20064;-59
2021/11/09 07:42:23;;;;;;;46.65;26.30;;;5.40;99.90;;;;;;5037019;28;20057;-47
2021/11/09 07:44:51;;;;;;;45.17;25.42;;;5.40;99.90;;;;;;5030855;28;20404;-60
2021/11/09 07:47:17;;;;;;;42.75;24.63;;;5.50;99.90;;;;;;5040569;28;20411;-59
2021/11/09 07:49:43;;;;;;;40.88;24.77;;;5.60;99.90;;;;;;5047067;28;20041;-60
2021/11/09 07:52:11;;;;;;;43.22;25.30;;;5.60;99.90;;;;;;5034785;28;20041;-60
2021/11/09 07:54:43;;;;;;;49.03;25.05;;;5.70;99.90;;;;;;5039131;28;20056;-49
2021/11/09 07:57:14;;;;;;;43.92;25.13;;;5.70;99.90;;;;;;5046024;28;20124;-50
2021/11/09 08:00:09;;;;;;;47.83;24.93;;;5.70;99.90;;;;;;5041222;28;20099;-48
2021/11/09 08:02:45;;;;;;;35.05;23.15;;;5.80;99.90;;;;;;5038273;28;20322;-47
2021/11/09 08:05:12;;;;;;;39.05;24.58;;;5.90;99.90;;;;;;5057666;28;20056;-47
2021/11/09 08:07:53;;;;;;;43.88;24.05;;;5.90;99.90;;;;;;5040152;28;20033;-47
2021/11/09 08:10:19;;;;;;;40.70;24.30;;;6.00;99.90;;;;;;5030692;28;20044;-49
2021/11/09 08:12:45;;;;;;;36.58;22.92;;;6.10;99.90;;;;;;5041059;28;20052;-47
2021/11/09 08:15:11;;;;;;;49.78;25.77;;;6.10;99.90;;;;;;5035949;28;20188;-51
2021/11/09 08:17:37;;;;;;;40.70;23.80;;;6.20;99.90;;;;;;5048388;28;20429;-45
2021/11/09 08:20:03;;;;;;;33.63;21.50;;;6.40;99.90;;;;;;5048764;28;20172;-48
2021/11/09 08:22:32;;;;;;;29.05;19.73;;;7.00;99.90;;;;;;5047475;28;20507;-49
2021/11/09 08:24:58;;;;;;;29.80;17.98;;;7.50;99.90;;;;;;5048525;28;20082;-47
2021/11/09 08:27:24;;;;;;;32.60;18.58;;;8.20;99.90;;;;;;5030381;28;20077;-45
2021/11/09 08:29:51;;;;;;;27.27;16.92;;;8.70;99.90;;;;;;5048382;28;20480;-60
2021/11/09 08:32:20;;;;;;;27.02;15.65;;;9.20;99.90;;;;;;5046969;28;20067;-60
2021/11/09 08:34:46;;;;;;;26.58;14.90;;;9.70;99.90;;;;;;5047643;28;20067;-60
2021/11/09 08:37:12;;;;;;;27.35;14.68;;;9.90;99.90;;;;;;5048584;28;20044;-60
2021/11/09 08:39:40;;;;;;;25.98;13.23;;;10.00;99.90;;;;;;5047051;28;20103;-61
2021/11/09 08:44:42;;;;;;;25.70;13.50;;;10.50;99.90;;;;;;5047363;28;20037;-60
2021/11/09 08:47:11;;;;;;;24.65;13.18;;;10.90;99.90;;;;;;5060419;28;20062;-60
2021/11/09 08:49:37;;;;;;;27.85;13.95;;;11.00;99.90;;;;;;5049233;28;20033;-60
2021/11/09 08:52:11;;;;;;;25.70;12.98;;;11.50;99.90;;;;;;5051528;28;20032;-60
2021/11/09 08:54:37;;;;;;;25.50;12.82;;;11.70;99.90;;;;;;5033768;28;20049;-60
2021/11/09 08:57:19;;;;;;;24.55;12.38;;;12.00;99.90;;;;;;5050195;28;20076;-60
2021/11/09 09:05:15;;;;;;;23.80;11.80;;;12.40;99.90;;;;;;5049481;28;20033;-60
2021/11/09 09:07:44;;;;;;;25.35;12.07;;;12.50;99.90;;;;;;5051300;28;20552;-60
2021/11/09 09:10:12;;;;;;;23.38;11.68;;;12.90;99.90;;;;;;5046855;28;20045;-60
2021/11/09 09:12:41;;;;;;;24.63;10.57;;;12.90;99.90;;;;;;5053294;28;20187;-60
2021/11/09 09:15:11;;;;;;;22.65;12.05;;;12.90;99.90;;;;;;5034251;28;20045;-60
2021/11/09 09:17:37;;;;;;;22.77;11.02;;;13.10;99.90;;;;;;5037750;28;20188;-60
2021/11/09 09:20:14;;;;;;;22.92;11.82;;;13.20;99.90;;;;;;5035244;28;20045;-60
2021/11/09 09:22:45;;;;;;;23.60;12.27;;;13.00;99.90;;;;;;5037403;28;20052;-60
2021/11/09 09:57:37;;;;;;;25.97;14.37;;;15.30;99.90;;;;;;4962167;28;20120;-60
2021/11/09 10:00:05;;;;;;;26.35;14.02;;;15.10;99.90;;;;;;4989539;28;20359;-59
2021/11/09 10:02:53;;;;;;;26.52;13.70;;;15.20;99.90;;;;;;4988522;28;20131;-47
2021/11/09 10:05:20;;;;;;;25.90;13.77;;;15.30;96.40;;;;;;4988189;28;20501;-46
2021/11/09 10:07:55;;;;;;;23.95;13.30;;;15.60;99.90;;;;;;4987601;28;20038;-44
2021/11/09 10:10:29;;;;;;;25.92;12.73;;;16.00;99.90;;;;;;4988326;28;20077;-44
2021/11/09 10:13:05;;;;;;;27.80;13.35;;;16.00;99.90;;;;;;4970629;28;20050;-59
2021/11/09 10:15:33;;;;;;;23.00;12.38;;;15.80;99.10;;;;;;4969851;28;20085;-59
2021/11/09 10:18:03;;;;;;;24.60;12.18;;;15.80;99.90;;;;;;4986692;28;20112;-59
2021/11/09 10:20:41;;;;;;;23.50;11.27;;;15.90;99.90;;;;;;4984258;28;20046;-59
2021/11/09 10:23:12;;;;;;;20.92;11.60;;;16.00;99.90;;;;;;4959954;28;20050;-46
2021/11/09 10:25:39;;;;;;;20.85;11.18;;;15.90;97.50;;;;;;4986579;28;20105;-45
2021/11/09 10:28:07;;;;;;;22.88;11.82;;;16.00;99.90;;;;;;4968074;28;20049;-44
2021/11/09 10:30:36;;;;;;;21.48;11.10;;;16.00;98.50;;;;;;4990288;28;20155;-56
2021/11/09 10:33:03;;;;;;;21.45;9.73;;;16.00;99.30;;;;;;5034000;28;20041;-55
2021/11/09 10:35:30;;;;;;;22.75;10.85;;;15.90;99.90;;;;;;5040166;28;20041;-55
2021/11/09 10:37:59;;;;;;;24.00;11.57;;;16.20;99.20;;;;;;5048223;28;20103;-55
2021/11/09 10:40:29;;;;;;;21.05;10.70;;;16.30;98.40;;;;;;5046184;28;20056;-55
2021/11/09 10:42:59;;;;;;;22.30;11.18;;;17.00;98.10;;;;;;5044493;28;20049;-55
2021/11/09 10:45:28;;;;;;;27.10;10.98;;;16.90;92.90;;;;;;5047978;28;20404;-58
2021/11/09 10:47:57;;;;;;;20.70;10.80;;;17.10;90.20;;;;;;5063802;28;20033;-58
2021/11/09 10:50:29;;;;;;;20.17;10.43;;;17.60;93.80;;;;;;5047413;28;20063;-58
2021/11/09 10:53:14;;;;;;;26.13;10.68;;;17.70;92.20;;;;;;5047894;28;20036;-56
2021/11/09 10:56:00;;;;;;;18.42;10.02;;;18.10;79.50;;;;;;5049572;28;20045;-55
2021/11/09 11:06:36;;;;;;;23.75;10.07;;;16.50;91.60;;;;;;5035188;28;20048;-57
2021/11/09 11:09:12;;;;;;;26.23;11.05;;;15.50;95.20;;;;;;5050449;28;20053;-57
2021/11/09 11:11:41;;;;;;;21.10;10.93;;;14.60;99.90;;;;;;5033662;28;20045;-57
2021/11/09 11:14:09;;;;;;;23.45;10.98;;;14.00;99.90;;;;;;5035065;28;20042;-57
2021/11/09 11:16:43;;;;;;;24.17;11.38;;;13.70;99.90;;;;;;5032401;28;20072;-58
2021/11/09 11:19:12;;;;;;;21.65;10.45;;;13.50;99.90;;;;;;5034165;28;20049;-58
2021/11/09 11:21:38;;;;;;;28.17;11.25;;;13.30;99.90;;;;;;5034414;28;20116;-58
2021/11/09 11:24:05;;;;;;;23.08;11.27;;;13.20;99.90;;;;;;5029745;28;20550;-56
2021/11/09 11:26:33;;;;;;;25.67;10.82;;;13.20;99.90;;;;;;5031930;28;20570;-59
2021/11/09 11:29:00;;;;;;;19.88;10.68;;;13.10;99.90;;;;;;5041198;28;20496;-56
2021/11/09 11:31:28;;;;;;;22.02;11.57;;;12.90;99.90;;;;;;5037718;28;20056;-56
2021/11/09 11:33:54;;;;;;;27.13;11.68;;;12.70;99.90;;;;;;5042337;28;20041;-56
2021/11/09 11:36:20;;;;;;;22.85;11.48;;;12.70;99.90;;;;;;5039164;28;20052;-56
2021/11/09 11:38:48;;;;;;;25.58;11.93;;;12.40;99.90;;;;;;5038254;28;20499;-56
2021/11/09 11:41:15;;;;;;;23.55;11.80;;;12.50;99.90;;;;;;5034707;28;20497;-55
2021/11/09 11:43:47;;;;;;;27.52;11.90;;;12.30;99.90;;;;;;5038218;28;20044;-56
2021/11/09 11:46:16;;;;;;;24.88;13.40;;;12.10;99.90;;;;;;5043891;28;20047;-55
2021/11/09 11:49:04;;;;;;;28.17;12.52;;;12.10;99.90;;;;;;5043912;28;20120;-56
2021/11/09 11:51:33;;;;;;;23.27;11.43;;;12.20;99.90;;;;;;5037496;28;20407;-55
2021/11/09 11:53:59;;;;;;;20.38;11.45;;;12.10;99.90;;;;;;5017966;28;20099;-56
2021/11/09 11:56:45;;;;;;;24.98;12.18;;;12.20;99.90;;;;;;5034880;28;20042;-56
2021/11/09 11:59:22;;;;;;;23.92;11.55;;;12.20;99.90;;;;;;5044521;28;20403;-56
2021/11/09 12:01:54;;;;;;;26.35;11.98;;;12.30;99.90;;;;;;5049783;28;20056;-55
2021/11/09 12:04:35;;;;;;;20.83;11.15;;;12.20;99.90;;;;;;5046357;28;20451;-55
2021/11/09 12:07:41;;;;;;;21.52;10.95;;;12.30;99.90;;;;;;5047516;28;20040;-56
2021/11/09 12:10:09;;;;;;;26.00;10.90;;;12.20;99.90;;;;;;5046235;28;20086;-56
2021/11/09 12:12:35;;;;;;;27.15;10.57;;;12.20;99.90;;;;;;5046596;28;20049;-56
2021/11/09 12:15:04;;;;;;;26.48;11.18;;;12.30;99.90;;;;;;5047791;28;20412;-56
2021/11/09 12:17:38;;;;;;;19.85;11.02;;;12.30;99.90;;;;;;5046582;28;20093;-55
2021/11/09 12:20:06;;;;;;;21.80;11.07;;;12.40;99.90;;;;;;5049408;28;20415;-56
2021/11/09 12:22:47;;;;;;;22.60;10.88;;;12.40;99.90;;;;;;5043141;28;20132;-57
2021/11/09 12:25:16;;;;;;;22.83;11.47;;;12.50;99.90;;;;;;5042409;28;20041;-58
2021/11/09 12:27:52;;;;;;;22.13;10.30;;;12.50;99.90;;;;;;5052297;28;20047;-58
2021/11/09 12:30:34;;;;;;;24.13;11.00;;;12.40;99.90;;;;;;5052601;28;20502;-59
2021/11/09 12:33:17;;;;;;;24.20;11.07;;;12.40;99.90;;;;;;5051185;28;20460;-59
2021/11/09 12:35:49;;;;;;;24.02;11.32;;;12.50;99.90;;;;;;5049091;28;20055;-59
2021/11/09 12:38:16;;;;;;;22.00;10.50;;;12.50;99.90;;;;;;5039248;28;20096;-59
2021/11/09 12:40:45;;;;;;;27.02;11.10;;;12.70;99.90;;;;;;5040903;28;20103;-59
2021/11/09 12:43:12;;;;;;;23.35;11.10;;;12.60;99.90;;;;;;5048770;28;20052;-59
2021/11/09 12:45:45;;;;;;;24.38;10.95;;;12.60;99.90;;;;;;5047896;28;20116;-59
2021/11/09 12:48:15;;;;;;;18.73;10.30;;;12.60;99.90;;;;;;5030783;28;20037;-59
2021/11/09 12:50:46;;;;;;;24.77;10.57;;;12.50;99.90;;;;;;5047642;28;20450;-59
2021/11/09 12:53:14;;;;;;;21.30;11.30;;;12.60;99.90;;;;;;5045608;28;20047;-59
2021/11/09 12:55:41;;;;;;;24.92;10.48;;;12.60;99.90;;;;;;5044468;28;20040;-57
2021/11/09 12:58:23;;;;;;;21.70;10.55;;;12.50;99.90;;;;;;5046789;28;20037;-57
2021/11/09 13:09:34;;;;;;;22.95;10.70;;;12.40;99.90;;;;;;5057796;28;20042;-56
2021/11/09 13:12:01;;;;;;;24.63;11.63;;;12.30;99.90;;;;;;5050915;28;20045;-57
2021/11/09 13:14:35;;;;;;;25.83;10.90;;;12.30;99.90;;;;;;5028348;28;20080;-57
2021/11/09 13:17:13;;;;;;;22.27;10.50;;;12.20;99.90;;;;;;5050791;28;20055;-56
2021/11/09 13:19:43;;;;;;;19.65;10.25;;;12.10;99.90;;;;;;5030048;28;20447;-58
2021/11/09 13:22:11;;;;;;;21.50;10.18;;;12.20;99.90;;;;;;5047292;28;20047;-59
2021/11/09 13:24:40;;;;;;;28.42;11.27;;;12.10;99.90;;;;;;5050200;28;20060;-58
2021/11/09 13:27:10;;;;;;;23.35;10.63;;;12.20;99.90;;;;;;5062902;28;20043;-58
2021/11/09 13:29:41;;;;;;;21.92;11.02;;;12.20;99.90;;;;;;5050185;28;20492;-58
2021/11/09 13:32:10;;;;;;;29.45;11.90;;;12.30;99.90;;;;;;5050140;28;20041;-59
2021/11/09 13:34:37;;;;;;;23.92;11.23;;;12.30;99.90;;;;;;5049480;28;20158;-58
2021/11/09 13:37:03;;;;;;;23.38;10.55;;;12.40;99.90;;;;;;5048037;28;20496;-58
2021/11/09 13:39:30;;;;;;;21.88;10.88;;;12.40;99.90;;;;;;5049996;28;20337;-58
2021/11/09 13:41:57;;;;;;;23.98;10.65;;;12.50;99.90;;;;;;5052628;28;20072;-58
2021/11/09 13:44:23;;;;;;;30.05;11.52;;;12.40;99.90;;;;;;5049604;28;20045;-58
2021/11/09 13:46:49;;;;;;;25.80;10.82;;;12.40;99.90;;;;;;5051009;28;20129;-58
2021/11/09 13:49:19;;;;;;;25.73;11.85;;;12.40;99.90;;;;;;5051505;28;20083;-59
2021/11/09 13:51:57;;;;;;;28.30;10.60;;;12.40;99.90;;;;;;5050990;28;20081;-57
2021/11/09 13:54:26;;;;;;;26.08;11.18;;;12.40;99.90;;;;;;5066165;28;20049;-57
2021/11/09 13:56:54;;;;;;;27.50;11.85;;;12.30;99.90;;;;;;5050989;28;20076;-60
2021/11/09 13:59:31;;;;;;;25.48;11.60;;;12.20;99.90;;;;;;5051252;28;20077;-59
2021/11/09 14:02:02;;;;;;;26.77;11.55;;;12.20;99.90;;;;;;5049771;28;20072;-56
2021/11/09 14:12:53;;;;;;;28.42;13.20;;;12.00;99.90;;;;;;4986804;28;20054;-53
2021/11/09 14:15:40;;;;;;;27.83;11.85;;;12.00;99.90;;;;;;4982853;28;20133;-53
2021/11/09 14:18:12;;;;;;;23.25;11.90;;;11.90;99.90;;;;;;4985898;28;20054;-49
2021/11/09 14:20:58;;;;;;;24.08;11.90;;;11.90;99.90;;;;;;4981913;28;20617;-49
2021/11/09 14:23:34;;;;;;;28.48;11.95;;;11.90;99.90;;;;;;4984666;28;20140;-50
2021/11/09 14:26:26;;;;;;;22.98;11.73;;;11.80;99.90;;;;;;4983966;28;20561;-50
2021/11/09 14:28:55;;;;;;;23.50;12.07;;;11.80;99.90;;;;;;4983276;28;20129;-53
2021/11/09 14:31:27;;;;;;;24.08;11.70;;;11.80;99.90;;;;;;4984707;28;20076;-58
2021/11/09 14:34:17;;;;;;;18.73;11.13;;;11.80;99.90;;;;;;4971739;28;20042;-58
2021/11/09 14:36:47;;;;;;;22.35;11.05;;;11.80;99.90;;;;;;4956699;28;20486;-47
2021/11/09 14:39:23;;;;;;;26.60;11.50;;;11.80;99.90;;;;;;4984625;28;20323;-58
2021/11/09 14:42:24;;;;;;;21.88;9.60;;;11.80;99.90;;;;;;4987685;28;20141;-58
2021/11/09 14:45:06;;;;;;;21.67;10.02;;;11.70;99.90;;;;;;4969703;28;20050;-56
2021/11/09 14:47:53;;;;;;;23.17;9.98;;;11.70;99.90;;;;;;4966115;28;20132;-56
2021/11/09 14:50:45;;;;;;;23.83;9.80;;;11.70;99.90;;;;;;4960004;28;20086;-58
2021/11/09 14:53:17;;;;;;;19.50;9.55;;;11.70;99.90;;;;;;4968742;28;20059;-58
2021/11/09 14:55:50;;;;;;;21.15;9.57;;;11.60;99.90;;;;;;4952857;28;20105;-58
2021/11/09 14:58:42;;;;;;;25.17;12.13;;;11.50;99.90;;;;;;4947882;28;20054;-58
2021/11/09 15:01:30;;;;;;;22.25;9.57;;;11.60;99.90;;;;;;4967380;28;20093;-58
2021/11/09 15:03:56;;;;;;;23.23;9.57;;;11.50;99.90;;;;;;4967741;28;20057;-58
2021/11/09 15:12:13;;;;;;;22.00;9.43;;;11.30;99.90;;;;;;4940441;28;19925;-58
2021/11/09 15:25:44;;;;;;;27.67;10.18;;;11.20;99.90;;;;;;5023006;28;20511;-50
2021/11/09 15:30:48;;;;;;;22.85;10.55;;;11.20;99.90;;;;;;4989721;28;20083;-51
2021/11/09 15:33:22;;;;;;;21.45;9.95;;;11.10;99.90;;;;;;5021289;28;20041;-50
2021/11/09 15:38:23;;;;;;;28.53;9.63;;;11.10;99.90;;;;;;5025044;28;20142;-49
2021/11/09 15:40:50;;;;;;;19.75;9.30;;;11.00;99.90;;;;;;5006562;28;20061;-52
2021/11/09 15:43:16;;;;;;;20.65;8.98;;;11.00;99.90;;;;;;5008566;28;20124;-53
2021/11/09 15:45:43;;;;;;;21.60;9.63;;;11.00;99.90;;;;;;5009085;28;20381;-53
2021/11/09 15:48:10;;;;;;;17.77;9.02;;;10.90;99.90;;;;;;5046035;28;20497;-51
2021/11/09 15:50:36;;;;;;;19.98;9.10;;;11.00;99.90;;;;;;5059984;28;20051;-52
2021/11/09 15:53:04;;;;;;;21.73;8.95;;;11.00;99.90;;;;;;5040913;28;20503;-51